sensor_id;sensor_type;location;lat;lon;timestamp;pressure;altitude;pressure_sealevel;temperature
29701;BMP280;57917;51.380;-0.176;2023-05-20T00:05:34;102397.44;;;11.76
29701;BMP280;57917;51.380;-0.176;2023-05-20T00:11:26;102403.88;;;11.64
29701;BMP280;57917;51.380;-0.176;2023-05-20T00:17:14;102400.91;;;11.32
29701;BMP280;57917;51.380;-0.176;2023-05-20T00:23:01;102391.78;;;11.56
29701;BMP280;57917;51.380;-0.176;2023-05-20T00:28:50;102394.91;;;11.25
29701;BMP280;57917;51.380;-0.176;2023-05-20T00:34:39;102394.44;;;11.28
29701;BMP280;57917;51.380;-0.176;2023-05-20T00:40:26;102395.03;;;11.02
29701;BMP280;57917;51.380;-0.176;2023-05-20T00:46:15;102394.66;;;11.10
29701;BMP280;57917;51.380;-0.176;2023-05-20T00:52:03;102409.72;;;10.98
29701;BMP280;57917;51.380;-0.176;2023-05-20T00:57:53;102413.63;;;10.56
29701;BMP280;57917;51.380;-0.176;2023-05-20T01:03:40;102419.13;;;10.54
29701;BMP280;57917;51.380;-0.176;2023-05-20T01:09:29;102408.19;;;10.51
29701;BMP280;57917;51.380;-0.176;2023-05-20T01:15:23;102403.00;;;10.67
29701;BMP280;57917;51.380;-0.176;2023-05-20T01:21:12;102397.38;;;10.64
29701;BMP280;57917;51.380;-0.176;2023-05-20T01:27:05;102401.75;;;10.70
29701;BMP280;57917;51.380;-0.176;2023-05-20T01:33:01;102398.03;;;10.71
29701;BMP280;57917;51.380;-0.176;2023-05-20T01:38:52;102396.22;;;10.37
29701;BMP280;57917;51.380;-0.176;2023-05-20T01:44:40;102379.75;;;10.46
29701;BMP280;57917;51.380;-0.176;2023-05-20T01:50:28;102387.00;;;10.74
29701;BMP280;57917;51.380;-0.176;2023-05-20T01:56:17;102370.91;;;10.41
29701;BMP280;57917;51.380;-0.176;2023-05-20T02:02:04;102381.59;;;10.34
29701;BMP280;57917;51.380;-0.176;2023-05-20T02:07:54;102385.63;;;10.37
29701;BMP280;57917;51.380;-0.176;2023-05-20T02:13:42;102380.69;;;10.52
29701;BMP280;57917;51.380;-0.176;2023-05-20T02:19:29;102378.97;;;10.46
29701;BMP280;57917;51.380;-0.176;2023-05-20T02:25:16;102387.94;;;10.22
29701;BMP280;57917;51.380;-0.176;2023-05-20T02:31:03;102381.94;;;10.15
29701;BMP280;57917;51.380;-0.176;2023-05-20T02:36:51;102376.34;;;9.81
29701;BMP280;57917;51.380;-0.176;2023-05-20T02:42:39;102379.00;;;9.81
29701;BMP280;57917;51.380;-0.176;2023-05-20T02:48:27;102374.31;;;9.95
29701;BMP280;57917;51.380;-0.176;2023-05-20T02:54:17;102369.81;;;9.72
29701;BMP280;57917;51.380;-0.176;2023-05-20T03:00:07;102370.00;;;9.71
29701;BMP280;57917;51.380;-0.176;2023-05-20T03:05:59;102374.41;;;9.77
29701;BMP280;57917;51.380;-0.176;2023-05-20T03:11:46;102371.69;;;9.95
29701;BMP280;57917;51.380;-0.176;2023-05-20T03:17:35;102374.16;;;9.37
29701;BMP280;57917;51.380;-0.176;2023-05-20T03:23:26;102381.09;;;9.32
29701;BMP280;57917;51.380;-0.176;2023-05-20T03:29:13;102388.66;;;9.46
29701;BMP280;57917;51.380;-0.176;2023-05-20T03:35:02;102382.19;;;9.42
29701;BMP280;57917;51.380;-0.176;2023-05-20T03:40:50;102392.34;;;9.27
29701;BMP280;57917;51.380;-0.176;2023-05-20T03:46:38;102382.19;;;9.42
29701;BMP280;57917;51.380;-0.176;2023-05-20T03:52:26;102392.84;;;9.36
29701;BMP280;57917;51.380;-0.176;2023-05-20T03:58:14;102390.84;;;9.02
29701;BMP280;57917;51.380;-0.176;2023-05-20T04:04:03;102400.91;;;8.93
29701;BMP280;57917;51.380;-0.176;2023-05-20T04:09:50;102400.66;;;8.95
29701;BMP280;57917;51.380;-0.176;2023-05-20T04:15:39;102393.69;;;9.36
29701;BMP280;57917;51.380;-0.176;2023-05-20T04:21:27;102395.63;;;9.11
29701;BMP280;57917;51.380;-0.176;2023-05-20T04:27:16;102394.31;;;9.02
29701;BMP280;57917;51.380;-0.176;2023-05-20T04:33:05;102392.09;;;8.99
29701;BMP280;57917;51.380;-0.176;2023-05-20T04:38:57;102402.78;;;9.22
29701;BMP280;57917;51.380;-0.176;2023-05-20T04:44:49;102391.72;;;9.14
29701;BMP280;57917;51.380;-0.176;2023-05-20T04:50:39;102398.41;;;9.16
29701;BMP280;57917;51.380;-0.176;2023-05-20T04:56:30;102397.75;;;9.21
29701;BMP280;57917;51.380;-0.176;2023-05-20T05:02:17;102394.78;;;9.11
29701;BMP280;57917;51.380;-0.176;2023-05-20T05:08:05;102395.94;;;9.15
29701;BMP280;57917;51.380;-0.176;2023-05-20T05:13:56;102389.63;;;9.34
29701;BMP280;57917;51.380;-0.176;2023-05-20T05:19:46;102387.06;;;9.27
29701;BMP280;57917;51.380;-0.176;2023-05-20T05:25:33;102398.06;;;9.42
29701;BMP280;57917;51.380;-0.176;2023-05-20T05:31:26;102396.41;;;9.48
29701;BMP280;57917;51.380;-0.176;2023-05-20T05:37:15;102392.34;;;9.45
29701;BMP280;57917;51.380;-0.176;2023-05-20T05:43:04;102393.94;;;9.46
29701;BMP280;57917;51.380;-0.176;2023-05-20T05:48:52;102393.50;;;9.79
29701;BMP280;57917;51.380;-0.176;2023-05-20T05:54:42;102398.41;;;9.75
29701;BMP280;57917;51.380;-0.176;2023-05-20T06:00:30;102395.41;;;10.13
29701;BMP280;57917;51.380;-0.176;2023-05-20T06:06:19;102386.63;;;10.01
29701;BMP280;57917;51.380;-0.176;2023-05-20T06:12:08;102388.41;;;10.19
29701;BMP280;57917;51.380;-0.176;2023-05-20T06:17:59;102384.69;;;10.20
29701;BMP280;57917;51.380;-0.176;2023-05-20T06:23:47;102385.19;;;10.17
29701;BMP280;57917;51.380;-0.176;2023-05-20T06:29:37;102369.63;;;10.32
29701;BMP280;57917;51.380;-0.176;2023-05-20T06:35:24;102367.44;;;10.63
29701;BMP280;57917;51.380;-0.176;2023-05-20T06:41:12;102373.03;;;10.67
29701;BMP280;57917;51.380;-0.176;2023-05-20T06:47:01;102362.16;;;10.52
29701;BMP280;57917;51.380;-0.176;2023-05-20T06:52:56;102354.50;;;10.67
29701;BMP280;57917;51.380;-0.176;2023-05-20T06:58:46;102350.59;;;10.81
29701;BMP280;57917;51.380;-0.176;2023-05-20T07:04:34;102351.31;;;10.65
29701;BMP280;57917;51.380;-0.176;2023-05-20T07:10:22;102342.16;;;10.84
29701;BMP280;57917;51.380;-0.176;2023-05-20T07:16:16;102360.13;;;10.93
29701;BMP280;57917;51.380;-0.176;2023-05-20T07:22:11;102354.28;;;11.36
29701;BMP280;57917;51.380;-0.176;2023-05-20T07:28:23;102343.28;;;11.44
29701;BMP280;57917;51.380;-0.176;2023-05-20T07:34:12;102340.81;;;11.54
29701;BMP280;57917;51.380;-0.176;2023-05-20T07:40:01;102333.59;;;11.99
29701;BMP280;57917;51.380;-0.176;2023-05-20T07:45:49;102328.50;;;12.36
29701;BMP280;57917;51.380;-0.176;2023-05-20T07:51:46;102334.88;;;12.56
29701;BMP280;57917;51.380;-0.176;2023-05-20T07:57:34;102319.19;;;12.33
29701;BMP280;57917;51.380;-0.176;2023-05-20T08:03:22;102326.47;;;12.64
29701;BMP280;57917;51.380;-0.176;2023-05-20T08:09:40;102318.25;;;13.14
29701;BMP280;57917;51.380;-0.176;2023-05-20T08:15:28;102302.84;;;14.46
29701;BMP280;57917;51.380;-0.176;2023-05-20T08:21:17;102282.13;;;15.18
29701;BMP280;57917;51.380;-0.176;2023-05-20T08:27:08;102280.53;;;15.42
29701;BMP280;57917;51.380;-0.176;2023-05-20T08:32:59;102276.22;;;15.51
29701;BMP280;57917;51.380;-0.176;2023-05-20T08:38:48;102279.84;;;15.95
29701;BMP280;57917;51.380;-0.176;2023-05-20T08:44:40;102269.94;;;16.55
29701;BMP280;57917;51.380;-0.176;2023-05-20T08:50:30;102272.69;;;16.78
29701;BMP280;57917;51.380;-0.176;2023-05-20T08:56:18;102256.38;;;17.08
29701;BMP280;57917;51.380;-0.176;2023-05-20T09:02:06;102249.94;;;16.81
29701;BMP280;57917;51.380;-0.176;2023-05-20T09:08:08;102256.06;;;17.85
29701;BMP280;57917;51.380;-0.176;2023-05-20T09:13:56;102253.31;;;18.09
29701;BMP280;57917;51.380;-0.176;2023-05-20T09:19:43;102249.69;;;18.37
29701;BMP280;57917;51.380;-0.176;2023-05-20T09:25:36;102243.59;;;19.09
29701;BMP280;57917;51.380;-0.176;2023-05-20T09:31:30;102222.47;;;18.62
29701;BMP280;57917;51.380;-0.176;2023-05-20T09:37:23;102215.16;;;19.22
29701;BMP280;57917;51.380;-0.176;2023-05-20T09:43:18;102212.09;;;19.01
29701;BMP280;57917;51.380;-0.176;2023-05-20T09:49:06;102220.25;;;19.86
29701;BMP280;57917;51.380;-0.176;2023-05-20T09:54:55;102203.13;;;19.82
29701;BMP280;57917;51.380;-0.176;2023-05-20T10:00:45;102192.00;;;18.85
29701;BMP280;57917;51.380;-0.176;2023-05-20T10:25:03;102170.28;;;20.29
29701;BMP280;57917;51.380;-0.176;2023-05-20T10:30:52;102148.41;;;21.00
29701;BMP280;57917;51.380;-0.176;2023-05-20T10:36:57;102135.28;;;20.20
29701;BMP280;57917;51.380;-0.176;2023-05-20T10:42:51;102144.25;;;19.36
29701;BMP280;57917;51.380;-0.176;2023-05-20T10:48:44;102129.78;;;19.10
29701;BMP280;57917;51.380;-0.176;2023-05-20T10:54:35;102121.59;;;19.29
29701;BMP280;57917;51.380;-0.176;2023-05-20T11:00:22;102120.91;;;18.69
29701;BMP280;57917;51.380;-0.176;2023-05-20T11:06:14;102109.69;;;18.81
29701;BMP280;57917;51.380;-0.176;2023-05-20T11:12:04;102102.03;;;18.74
29701;BMP280;57917;51.380;-0.176;2023-05-20T11:18:00;102098.28;;;19.02
29701;BMP280;57917;51.380;-0.176;2023-05-20T11:23:50;102095.38;;;19.92
29701;BMP280;57917;51.380;-0.176;2023-05-20T11:29:38;102094.53;;;20.35
29701;BMP280;57917;51.380;-0.176;2023-05-20T11:35:30;102091.28;;;20.16
29701;BMP280;57917;51.380;-0.176;2023-05-20T11:41:23;102083.75;;;20.35
29701;BMP280;57917;51.380;-0.176;2023-05-20T11:47:09;102057.84;;;19.78
29701;BMP280;57917;51.380;-0.176;2023-05-20T11:52:59;102051.50;;;20.35
29701;BMP280;57917;51.380;-0.176;2023-05-20T11:58:51;102051.53;;;19.61
29701;BMP280;57917;51.380;-0.176;2023-05-20T12:05:17;102038.28;;;19.42
29701;BMP280;57917;51.380;-0.176;2023-05-20T12:11:50;102037.59;;;19.72
29701;BMP280;57917;51.380;-0.176;2023-05-20T12:17:54;102034.44;;;20.48
29701;BMP280;57917;51.380;-0.176;2023-05-20T12:23:44;102024.16;;;19.72
29701;BMP280;57917;51.380;-0.176;2023-05-20T12:29:33;102021.72;;;19.93
29701;BMP280;57917;51.380;-0.176;2023-05-20T12:35:37;102006.25;;;20.07
29701;BMP280;57917;51.380;-0.176;2023-05-20T12:41:27;102016.09;;;19.72
29701;BMP280;57917;51.380;-0.176;2023-05-20T12:54:49;102024.88;;;19.95
29701;BMP280;57917;51.380;-0.176;2023-05-20T13:00:58;102019.56;;;20.51
29701;BMP280;57917;51.380;-0.176;2023-05-20T13:06:45;102002.19;;;19.79
29701;BMP280;57917;51.380;-0.176;2023-05-20T13:12:33;102019.00;;;19.40
29701;BMP280;57917;51.380;-0.176;2023-05-20T13:18:21;102015.59;;;19.70
29701;BMP280;57917;51.380;-0.176;2023-05-20T13:24:08;102007.13;;;19.94
29701;BMP280;57917;51.380;-0.176;2023-05-20T13:29:55;101995.84;;;19.75
29701;BMP280;57917;51.380;-0.176;2023-05-20T13:35:42;101993.97;;;19.31
29701;BMP280;57917;51.380;-0.176;2023-05-20T13:41:31;101982.63;;;19.56
29701;BMP280;57917;51.380;-0.176;2023-05-20T13:47:23;101966.66;;;19.90
29701;BMP280;57917;51.380;-0.176;2023-05-20T13:53:20;101979.63;;;19.58
29701;BMP280;57917;51.380;-0.176;2023-05-20T13:59:07;101962.81;;;19.74
29701;BMP280;57917;51.380;-0.176;2023-05-20T14:04:56;101954.09;;;19.77
29701;BMP280;57917;51.380;-0.176;2023-05-20T14:10:43;101945.81;;;20.35
29701;BMP280;57917;51.380;-0.176;2023-05-20T14:16:40;101955.88;;;20.29
29701;BMP280;57917;51.380;-0.176;2023-05-20T14:22:33;101941.63;;;20.12
29701;BMP280;57917;51.380;-0.176;2023-05-20T14:28:20;101942.16;;;20.39
29701;BMP280;57917;51.380;-0.176;2023-05-20T14:34:08;101936.22;;;20.03
29701;BMP280;57917;51.380;-0.176;2023-05-20T14:39:56;101922.78;;;20.12
29701;BMP280;57917;51.380;-0.176;2023-05-20T14:45:43;101898.97;;;19.80
29701;BMP280;57917;51.380;-0.176;2023-05-20T14:51:32;101910.88;;;19.87
29701;BMP280;57917;51.380;-0.176;2023-05-20T14:57:19;101902.91;;;20.30
29701;BMP280;57917;51.380;-0.176;2023-05-20T15:03:10;101904.31;;;19.71
29701;BMP280;57917;51.380;-0.176;2023-05-20T15:08:57;101897.06;;;19.41
29701;BMP280;57917;51.380;-0.176;2023-05-20T15:14:45;101898.63;;;19.81
29701;BMP280;57917;51.380;-0.176;2023-05-20T15:20:33;101898.59;;;19.42
29701;BMP280;57917;51.380;-0.176;2023-05-20T15:26:20;101895.44;;;19.40
29701;BMP280;57917;51.380;-0.176;2023-05-20T15:32:10;101883.75;;;19.75
29701;BMP280;57917;51.380;-0.176;2023-05-20T15:37:58;101872.41;;;19.78
29701;BMP280;57917;51.380;-0.176;2023-05-20T15:43:45;101875.63;;;19.89
29701;BMP280;57917;51.380;-0.176;2023-05-20T15:49:32;101886.94;;;19.86
29701;BMP280;57917;51.380;-0.176;2023-05-20T15:55:25;101867.13;;;19.34
29701;BMP280;57917;51.380;-0.176;2023-05-20T16:01:19;101852.31;;;19.37
29701;BMP280;57917;51.380;-0.176;2023-05-20T16:07:21;101849.25;;;19.69
29701;BMP280;57917;51.380;-0.176;2023-05-20T16:13:09;101851.97;;;19.77
29701;BMP280;57917;51.380;-0.176;2023-05-20T16:19:00;101855.88;;;19.24
29701;BMP280;57917;51.380;-0.176;2023-05-20T16:24:47;101855.53;;;19.25
29701;BMP280;57917;51.380;-0.176;2023-05-20T16:30:36;101847.75;;;19.37
29701;BMP280;57917;51.380;-0.176;2023-05-20T16:36:25;101845.38;;;19.44
29701;BMP280;57917;51.380;-0.176;2023-05-20T16:42:14;101861.22;;;19.46
29701;BMP280;57917;51.380;-0.176;2023-05-20T16:48:03;101852.31;;;19.37
29701;BMP280;57917;51.380;-0.176;2023-05-20T16:53:52;101844.31;;;19.23
29701;BMP280;57917;51.380;-0.176;2023-05-20T16:59:39;101850.00;;;19.22
29701;BMP280;57917;51.380;-0.176;2023-05-20T17:05:32;101845.03;;;19.29
29701;BMP280;57917;51.380;-0.176;2023-05-20T17:11:28;101845.78;;;19.29
29701;BMP280;57917;51.380;-0.176;2023-05-20T17:17:15;101850.25;;;19.42
29701;BMP280;57917;51.380;-0.176;2023-05-20T17:23:02;101847.03;;;19.01
29701;BMP280;57917;51.380;-0.176;2023-05-20T17:28:50;101862.66;;;18.99
29701;BMP280;57917;51.380;-0.176;2023-05-20T17:34:40;101867.28;;;18.85
29701;BMP280;57917;51.380;-0.176;2023-05-20T17:40:29;101865.13;;;18.73
29701;BMP280;57917;51.380;-0.176;2023-05-20T17:46:16;101891.44;;;18.49
29701;BMP280;57917;51.380;-0.176;2023-05-20T17:52:05;101888.28;;;18.34
29701;BMP280;57917;51.380;-0.176;2023-05-20T17:57:52;101883.34;;;18.63
29701;BMP280;57917;51.380;-0.176;2023-05-20T18:03:40;101887.47;;;18.60
29701;BMP280;57917;51.380;-0.176;2023-05-20T18:09:27;101902.13;;;18.63
29701;BMP280;57917;51.380;-0.176;2023-05-20T18:15:14;101890.91;;;18.61
29701;BMP280;57917;51.380;-0.176;2023-05-20T18:21:05;101898.59;;;18.54
29701;BMP280;57917;51.380;-0.176;2023-05-20T18:26:53;101898.63;;;18.00
29701;BMP280;57917;51.380;-0.176;2023-05-20T18:32:40;101894.63;;;17.84
29701;BMP280;57917;51.380;-0.176;2023-05-20T18:38:27;101909.88;;;17.70
29701;BMP280;57917;51.380;-0.176;2023-05-20T18:44:18;101904.09;;;17.49
29701;BMP280;57917;51.380;-0.176;2023-05-20T18:50:13;101891.97;;;17.38
29701;BMP280;57917;51.380;-0.176;2023-05-20T18:56:04;101893.66;;;17.16
29701;BMP280;57917;51.380;-0.176;2023-05-20T19:01:53;101902.00;;;17.14
29701;BMP280;57917;51.380;-0.176;2023-05-20T19:07:40;101898.84;;;17.26
29701;BMP280;57917;51.380;-0.176;2023-05-20T19:13:29;101907.41;;;16.91
29701;BMP280;57917;51.380;-0.176;2023-05-20T19:19:17;101901.66;;;16.84
29701;BMP280;57917;51.380;-0.176;2023-05-20T19:25:05;101899.69;;;16.71
29701;BMP280;57917;51.380;-0.176;2023-05-20T19:30:53;101906.22;;;16.60
29701;BMP280;57917;51.380;-0.176;2023-05-20T19:36:42;101905.34;;;16.46
29701;BMP280;57917;51.380;-0.176;2023-05-20T19:42:32;101904.56;;;16.21
29701;BMP280;57917;51.380;-0.176;2023-05-20T19:48:21;101898.97;;;16.18
29701;BMP280;57917;51.380;-0.176;2023-05-20T19:54:08;101900.41;;;16.10
29701;BMP280;57917;51.380;-0.176;2023-05-20T19:59:56;101899.41;;;16.01
29701;BMP280;57917;51.380;-0.176;2023-05-20T20:05:44;101902.75;;;15.88
29701;BMP280;57917;51.380;-0.176;2023-05-20T20:11:31;101904.25;;;15.71
29701;BMP280;57917;51.380;-0.176;2023-05-20T20:17:20;101907.84;;;15.61
29701;BMP280;57917;51.380;-0.176;2023-05-20T20:23:10;101899.19;;;15.36
29701;BMP280;57917;51.380;-0.176;2023-05-20T20:29:01;101906.31;;;15.45
29701;BMP280;57917;51.380;-0.176;2023-05-20T20:34:51;101908.78;;;15.37
29701;BMP280;57917;51.380;-0.176;2023-05-20T20:40:47;101902.72;;;15.26
29701;BMP280;57917;51.380;-0.176;2023-05-20T20:46:35;101909.84;;;14.97
29701;BMP280;57917;51.380;-0.176;2023-05-20T20:52:23;101911.06;;;14.61
29701;BMP280;57917;51.380;-0.176;2023-05-20T20:58:11;101928.94;;;14.66
29701;BMP280;57917;51.380;-0.176;2023-05-20T21:04:03;101934.28;;;14.61
29701;BMP280;57917;51.380;-0.176;2023-05-20T21:09:52;101951.38;;;14.39
29701;BMP280;57917;51.380;-0.176;2023-05-20T21:15:42;101959.94;;;14.21
29701;BMP280;57917;51.380;-0.176;2023-05-20T21:21:33;101958.06;;;14.17
29701;BMP280;57917;51.380;-0.176;2023-05-20T21:27:20;101963.69;;;14.05
29701;BMP280;57917;51.380;-0.176;2023-05-20T21:33:20;101965.00;;;13.98
29701;BMP280;57917;51.380;-0.176;2023-05-20T21:39:09;101953.53;;;13.97
29701;BMP280;57917;51.380;-0.176;2023-05-20T21:44:56;101964.47;;;13.81
29701;BMP280;57917;51.380;-0.176;2023-05-20T21:50:44;101955.91;;;13.59
29701;BMP280;57917;51.380;-0.176;2023-05-20T21:56:31;101958.31;;;13.50
29701;BMP280;57917;51.380;-0.176;2023-05-20T22:02:19;101957.50;;;13.50
29701;BMP280;57917;51.380;-0.176;2023-05-20T22:08:06;101947.13;;;13.48
29701;BMP280;57917;51.380;-0.176;2023-05-20T22:13:57;101949.50;;;13.40
29701;BMP280;57917;51.380;-0.176;2023-05-20T22:19:46;101962.75;;;13.20
29701;BMP280;57917;51.380;-0.176;2023-05-20T22:25:34;101965.34;;;13.15
29701;BMP280;57917;51.380;-0.176;2023-05-20T22:31:23;101966.97;;;13.16
29701;BMP280;57917;51.380;-0.176;2023-05-20T22:37:17;101963.81;;;13.14
29701;BMP280;57917;51.380;-0.176;2023-05-20T22:43:05;101966.97;;;13.16
29701;BMP280;57917;51.380;-0.176;2023-05-20T22:48:54;101948.34;;;13.11
29701;BMP280;57917;51.380;-0.176;2023-05-20T22:54:43;101940.84;;;12.93
29701;BMP280;57917;51.380;-0.176;2023-05-20T23:00:30;101930.47;;;12.96
29701;BMP280;57917;51.380;-0.176;2023-05-20T23:06:18;101929.56;;;12.75
29701;BMP280;57917;51.380;-0.176;2023-05-20T23:12:05;101922.56;;;12.54
29701;BMP280;57917;51.380;-0.176;2023-05-20T23:17:53;101908.88;;;12.72
29701;BMP280;57917;51.380;-0.176;2023-05-20T23:23:42;101909.81;;;12.56
29701;BMP280;57917;51.380;-0.176;2023-05-20T23:29:29;101901.78;;;12.41
29701;BMP280;57917;51.380;-0.176;2023-05-20T23:35:24;101903.94;;;12.49
29701;BMP280;57917;51.380;-0.176;2023-05-20T23:41:17;101910.31;;;12.48
29701;BMP280;57917;51.380;-0.176;2023-05-20T23:47:04;101900.59;;;12.22
29701;BMP280;57917;51.380;-0.176;2023-05-20T23:53:00;101906.53;;;12.34
29701;BMP280;57917;51.380;-0.176;2023-05-20T23:58:51;101891.97;;;12.05
